N809CT KSPG-KSIM
Flight info
| Callsign | N809CT |
|---|---|
| Flight time | N/A |
| Altitude | |
| Route | |
| Aircraft | C206/L-DOV/C |
Departure
| Time | 2026-05-03 21:42 |
|---|---|
| Airport | Albert Whitted Airport (KSPG) |
Arrival
| Time | N/A |
|---|---|
| Airport | KSIM |
| Time | Latitude | Longitude | Altitude | Speed | Heading |
|---|---|---|---|---|---|
| 2026-05-03 21:33 | 27.76459 | -82.63225 | 13 ft | 0 kts | 153° |
| 2026-05-03 21:38 | 27.76452 | -82.63231 | 13 ft | 6 kts | 234° |
| 2026-05-03 21:39 | 27.76421 | -82.63275 | 13 ft | 10 kts | 233° |
| 2026-05-03 21:39 | 27.76377 | -82.63354 | 13 ft | 2 kts | 217° |
| 2026-05-03 21:41 | 27.76374 | -82.63356 | 13 ft | 4 kts | 206° |
| 2026-05-03 21:41 | 27.76331 | -82.63332 | 14 ft | 11 kts | 70° |
| 2026-05-03 21:41 | 27.76412 | -82.63150 | 15 ft | 53 kts | 62° |
| 2026-05-03 21:42 | 27.76673 | -82.62616 | 47 ft | 97 kts | 64° |
| 2026-05-03 21:42 | 27.77017 | -82.61885 | 293 ft | 107 kts | 63° |
| 2026-05-03 21:42 | 27.77379 | -82.61132 | 586 ft | 110 kts | 62° |
| 2026-05-03 21:42 | 27.77643 | -82.60321 | 940 ft | 108 kts | 69° |
| 2026-05-03 21:43 | 27.77871 | -82.59490 | 1249 ft | 112 kts | 76° |
| 2026-05-03 21:43 | 27.77936 | -82.58602 | 1546 ft | 121 kts | 87° |
| 2026-05-03 21:43 | 27.77923 | -82.57556 | 1565 ft | 141 kts | 86° |
| 2026-05-03 21:43 | 27.77997 | -82.56488 | 1564 ft | 136 kts | 81° |
| 2026-05-03 21:44 | 27.78167 | -82.55445 | 1477 ft | 131 kts | 76° |
| 2026-05-03 21:44 | 27.78353 | -82.54448 | 1392 ft | 125 kts | 76° |
| 2026-05-03 21:44 | 27.78528 | -82.53513 | 1379 ft | 118 kts | 75° |
| 2026-05-03 21:44 | 27.78728 | -82.52652 | 1448 ft | 110 kts | 74° |
| 2026-05-03 21:45 | 27.78899 | -82.51827 | 1504 ft | 107 kts | 73° |
| 2026-05-03 21:45 | 27.79067 | -82.50992 | 1505 ft | 111 kts | 75° |
| 2026-05-03 21:45 | 27.79260 | -82.50139 | 1507 ft | 113 kts | 73° |
| 2026-05-03 21:45 | 27.79452 | -82.49281 | 1510 ft | 112 kts | 73° |
| 2026-05-03 21:46 | 27.79659 | -82.48434 | 1499 ft | 112 kts | 74° |
| 2026-05-03 21:46 | 27.79853 | -82.47612 | 1509 ft | 109 kts | 73° |
| 2026-05-03 21:46 | 27.80052 | -82.46773 | 1513 ft | 112 kts | 72° |
| 2026-05-03 21:46 | 27.80259 | -82.45907 | 1510 ft | 115 kts | 75° |
| 2026-05-03 21:47 | 27.80470 | -82.45033 | 1524 ft | 116 kts | 73° |
| 2026-05-03 21:47 | 27.80686 | -82.44154 | 1520 ft | 116 kts | 73° |
| 2026-05-03 21:47 | 27.80907 | -82.43277 | 1517 ft | 116 kts | 72° |
| 2026-05-03 21:47 | 27.81121 | -82.42397 | 1519 ft | 115 kts | 73° |
| 2026-05-03 21:48 | 27.81337 | -82.41530 | 1516 ft | 114 kts | 73° |
| 2026-05-03 21:48 | 27.81535 | -82.40673 | 1511 ft | 112 kts | 74° |
| 2026-05-03 21:48 | 27.81732 | -82.39828 | 1506 ft | 112 kts | 72° |
| 2026-05-03 21:48 | 27.81918 | -82.38977 | 1508 ft | 112 kts | 74° |
| 2026-05-03 21:49 | 27.82251 | -82.38187 | 1507 ft | 111 kts | 57° |
| 2026-05-03 21:49 | 27.82622 | -82.37428 | 1511 ft | 109 kts | 62° |
| 2026-05-03 21:49 | 27.82973 | -82.36680 | 1504 ft | 107 kts | 60° |
| 2026-05-03 21:49 | 27.83313 | -82.35944 | 1514 ft | 104 kts | 63° |
| 2026-05-03 21:50 | 27.83650 | -82.35211 | 1507 ft | 105 kts | 61° |
| 2026-05-03 21:50 | 27.83977 | -82.34498 | 1512 ft | 101 kts | 63° |
| 2026-05-03 21:50 | 27.84302 | -82.33788 | 1505 ft | 101 kts | 62° |
| 2026-05-03 21:50 | 27.84625 | -82.33079 | 1507 ft | 103 kts | 63° |
| 2026-05-03 21:51 | 27.84947 | -82.32371 | 1510 ft | 103 kts | 62° |
| 2026-05-03 21:51 | 27.85281 | -82.31638 | 1508 ft | 106 kts | 64° |
| 2026-05-03 21:51 | 27.85613 | -82.30906 | 1515 ft | 105 kts | 62° |
| 2026-05-03 21:51 | 27.85950 | -82.30166 | 1517 ft | 107 kts | 62° |
| 2026-05-03 21:52 | 27.86294 | -82.29409 | 1522 ft | 110 kts | 61° |
| 2026-05-03 21:52 | 27.86643 | -82.28641 | 1525 ft | 109 kts | 62° |
| 2026-05-03 21:52 | 27.86989 | -82.27880 | 1532 ft | 109 kts | 62° |
| 2026-05-03 21:52 | 27.87338 | -82.27114 | 1531 ft | 109 kts | 61° |
| 2026-05-03 21:53 | 27.87686 | -82.26349 | 1542 ft | 110 kts | 62° |
| 2026-05-03 21:53 | 27.88034 | -82.25582 | 1543 ft | 111 kts | 63° |
| 2026-05-03 21:53 | 27.88388 | -82.24804 | 1531 ft | 109 kts | 61° |
| 2026-05-03 21:53 | 27.88732 | -82.24045 | 1532 ft | 108 kts | 62° |
| 2026-05-03 21:54 | 27.89067 | -82.23308 | 1524 ft | 105 kts | 63° |
| 2026-05-03 21:54 | 27.89396 | -82.22589 | 1522 ft | 104 kts | 62° |
| 2026-05-03 21:54 | 27.89723 | -82.21864 | 1524 ft | 103 kts | 63° |
| 2026-05-03 21:54 | 27.90049 | -82.21152 | 1533 ft | 104 kts | 62° |
| 2026-05-03 21:55 | 27.90383 | -82.20414 | 1528 ft | 106 kts | 62° |
| 2026-05-03 21:55 | 27.90717 | -82.19674 | 1532 ft | 106 kts | 62° |
| 2026-05-03 21:55 | 27.91058 | -82.18926 | 1533 ft | 108 kts | 63° |
| 2026-05-03 21:55 | 27.91403 | -82.18163 | 1540 ft | 110 kts | 61° |
| 2026-05-03 21:56 | 27.91753 | -82.17395 | 1542 ft | 110 kts | 62° |
| 2026-05-03 21:56 | 27.92108 | -82.16613 | 1535 ft | 111 kts | 63° |
| 2026-05-03 21:56 | 27.92459 | -82.15842 | 1526 ft | 110 kts | 62° |
| 2026-05-03 21:56 | 27.92802 | -82.15086 | 1526 ft | 108 kts | 62° |
| 2026-05-03 21:57 | 27.93149 | -82.14324 | 1532 ft | 110 kts | 62° |
| 2026-05-03 21:57 | 27.93490 | -82.13569 | 1536 ft | 108 kts | 63° |
| 2026-05-03 21:57 | 27.93862 | -82.12828 | 1532 ft | 106 kts | 59° |
| 2026-05-03 21:57 | 27.94229 | -82.12123 | 1526 ft | 106 kts | 59° |
| 2026-05-03 21:58 | 27.94596 | -82.11404 | 1524 ft | 103 kts | 62° |
| 2026-05-03 21:58 | 27.94729 | -82.10610 | 1526 ft | 105 kts | 85° |
| 2026-05-03 21:58 | 27.94795 | -82.09784 | 1525 ft | 104 kts | 82° |
| 2026-05-03 21:58 | 27.94881 | -82.08972 | 1531 ft | 104 kts | 82° |
| 2026-05-03 21:59 | 27.94965 | -82.08156 | 1531 ft | 107 kts | 81° |
| 2026-05-03 21:59 | 27.95048 | -82.07312 | 1522 ft | 106 kts | 82° |
| 2026-05-03 21:59 | 27.95127 | -82.06479 | 1536 ft | 107 kts | 82° |
| 2026-05-03 21:59 | 27.95239 | -82.05656 | 1529 ft | 104 kts | 72° |
| 2026-05-03 22:00 | 27.95419 | -82.04850 | 1526 ft | 106 kts | 74° |
| 2026-05-03 22:00 | 27.95589 | -82.04035 | 1527 ft | 107 kts | 74° |
| 2026-05-03 22:00 | 27.95759 | -82.03222 | 1519 ft | 105 kts | 75° |
| 2026-05-03 22:00 | 27.95943 | -82.02438 | 1526 ft | 103 kts | 74° |
| 2026-05-03 22:01 | 27.96117 | -82.01664 | 1529 ft | 103 kts | 75° |
| 2026-05-03 22:01 | 27.96284 | -82.00890 | 1528 ft | 99 kts | 74° |
| 2026-05-03 22:01 | 27.96440 | -82.00140 | 1529 ft | 98 kts | 74° |
| 2026-05-03 22:01 | 27.96597 | -81.99367 | 1530 ft | 103 kts | 72° |
| 2026-05-03 22:02 | 27.96746 | -81.98582 | 1532 ft | 100 kts | 75° |
| 2026-05-03 22:02 | 27.96889 | -81.97818 | 1525 ft | 102 kts | 75° |
| 2026-05-03 22:02 | 27.97050 | -81.97036 | 1531 ft | 103 kts | 74° |
| 2026-05-03 22:02 | 27.97203 | -81.96253 | 1536 ft | 104 kts | 74° |
| 2026-05-03 22:03 | 27.97368 | -81.95457 | 1536 ft | 104 kts | 73° |
| 2026-05-03 22:03 | 27.97522 | -81.94658 | 1543 ft | 104 kts | 74° |
| 2026-05-03 22:03 | 27.97714 | -81.93876 | 1531 ft | 103 kts | 59° |
| 2026-05-03 22:03 | 27.98177 | -81.93284 | 1531 ft | 99 kts | 50° |
| 2026-05-03 22:04 | 27.98622 | -81.92671 | 1532 ft | 101 kts | 50° |
| 2026-05-03 22:04 | 27.99050 | -81.92049 | 1537 ft | 100 kts | 53° |
| 2026-05-03 22:04 | 27.99468 | -81.91412 | 1528 ft | 101 kts | 54° |
| 2026-05-03 22:04 | 27.99883 | -81.90761 | 1535 ft | 103 kts | 56° |
| 2026-05-03 22:05 | 28.00296 | -81.90108 | 1532 ft | 101 kts | 55° |
| 2026-05-03 22:05 | 28.00702 | -81.89460 | 1537 ft | 102 kts | 55° |
| 2026-05-03 22:05 | 28.01119 | -81.88788 | 1549 ft | 105 kts | 55° |
| 2026-05-03 22:05 | 28.01547 | -81.88102 | 1544 ft | 109 kts | 54° |
| 2026-05-03 22:06 | 28.01976 | -81.87412 | 1557 ft | 109 kts | 54° |
| 2026-05-03 22:06 | 28.02418 | -81.86700 | 1558 ft | 110 kts | 54° |
| 2026-05-03 22:06 | 28.02856 | -81.85995 | 1561 ft | 110 kts | 54° |
| 2026-05-03 22:06 | 28.03298 | -81.85282 | 1561 ft | 111 kts | 53° |
| 2026-05-03 22:07 | 28.03746 | -81.84559 | 1552 ft | 111 kts | 52° |
| 2026-05-03 22:07 | 28.04197 | -81.83835 | 1545 ft | 113 kts | 54° |
| 2026-05-03 22:07 | 28.04646 | -81.83110 | 1531 ft | 108 kts | 55° |
| 2026-05-03 22:07 | 28.05054 | -81.82453 | 1488 ft | 95 kts | 55° |
| 2026-05-03 22:08 | 28.05413 | -81.81876 | 1484 ft | 87 kts | 54° |
| 2026-05-03 22:08 | 28.05747 | -81.81338 | 1482 ft | 80 kts | 57° |
| 2026-05-03 22:08 | 28.06077 | -81.80809 | 1503 ft | 88 kts | 53° |
| 2026-05-03 22:08 | 28.06453 | -81.80207 | 1506 ft | 98 kts | 56° |
| 2026-05-03 22:09 | 28.06855 | -81.79553 | 1505 ft | 104 kts | 55° |
| 2026-05-03 22:09 | 28.07272 | -81.78879 | 1504 ft | 105 kts | 53° |
| 2026-05-03 22:09 | 28.07704 | -81.78182 | 1498 ft | 111 kts | 53° |
| 2026-05-03 22:10 | 28.08613 | -81.76714 | 1502 ft | 118 kts | 53° |
| 2026-05-03 22:10 | 28.09083 | -81.75953 | 1510 ft | 121 kts | 53° |
| 2026-05-03 22:10 | 28.09556 | -81.75179 | 1503 ft | 120 kts | 56° |
| 2026-05-03 22:10 | 28.09928 | -81.74361 | 1500 ft | 114 kts | 61° |
| 2026-05-03 22:11 | 28.10308 | -81.73590 | 1498 ft | 110 kts | 59° |
| 2026-05-03 22:11 | 28.10685 | -81.72826 | 1490 ft | 110 kts | 59° |
| 2026-05-03 22:11 | 28.11060 | -81.72070 | 1499 ft | 112 kts | 59° |
| 2026-05-03 22:11 | 28.11439 | -81.71307 | 1496 ft | 110 kts | 59° |
| 2026-05-03 22:12 | 28.11818 | -81.70546 | 1495 ft | 112 kts | 59° |
| 2026-05-03 22:12 | 28.12216 | -81.69769 | 1502 ft | 116 kts | 57° |
| 2026-05-03 22:12 | 28.12619 | -81.68978 | 1502 ft | 116 kts | 59° |
| 2026-05-03 22:12 | 28.13017 | -81.68182 | 1503 ft | 119 kts | 60° |
| 2026-05-03 22:13 | 28.13421 | -81.67381 | 1492 ft | 115 kts | 59° |
| 2026-05-03 22:13 | 28.13796 | -81.66597 | 1490 ft | 112 kts | 60° |
| 2026-05-03 22:13 | 28.14164 | -81.65828 | 1490 ft | 113 kts | 58° |
| 2026-05-03 22:13 | 28.14547 | -81.65036 | 1489 ft | 115 kts | 60° |
| 2026-05-03 22:14 | 28.14946 | -81.64234 | 1502 ft | 120 kts | 58° |
| 2026-05-03 22:14 | 28.15356 | -81.63420 | 1500 ft | 119 kts | 60° |
| 2026-05-03 22:14 | 28.15763 | -81.62616 | 1505 ft | 116 kts | 59° |
| 2026-05-03 22:14 | 28.16153 | -81.61817 | 1494 ft | 114 kts | 59° |
| 2026-05-03 22:15 | 28.16536 | -81.61042 | 1495 ft | 112 kts | 59° |
| 2026-05-03 22:15 | 28.16908 | -81.60282 | 1498 ft | 111 kts | 58° |
| 2026-05-03 22:15 | 28.17282 | -81.59513 | 1487 ft | 112 kts | 59° |
| 2026-05-03 22:15 | 28.17661 | -81.58744 | 1500 ft | 112 kts | 59° |
| 2026-05-03 22:16 | 28.18049 | -81.57973 | 1504 ft | 114 kts | 60° |
| 2026-05-03 22:16 | 28.18438 | -81.57191 | 1501 ft | 114 kts | 59° |
| 2026-05-03 22:16 | 28.18823 | -81.56419 | 1510 ft | 114 kts | 58° |
| 2026-05-03 22:16 | 28.19237 | -81.55644 | 1512 ft | 115 kts | 58° |
| 2026-05-03 22:17 | 28.19649 | -81.54863 | 1510 ft | 115 kts | 57° |
| 2026-05-03 22:17 | 28.20061 | -81.54087 | 1507 ft | 115 kts | 57° |
| 2026-05-03 22:17 | 28.20470 | -81.53312 | 1511 ft | 114 kts | 58° |
| 2026-05-03 22:17 | 28.20880 | -81.52547 | 1508 ft | 114 kts | 57° |
| 2026-05-03 22:18 | 28.21297 | -81.51776 | 1512 ft | 115 kts | 58° |
| 2026-05-03 22:18 | 28.21736 | -81.51010 | 1508 ft | 117 kts | 56° |
| 2026-05-03 22:18 | 28.22188 | -81.50254 | 1509 ft | 114 kts | 54° |
| 2026-05-03 22:18 | 28.22630 | -81.49506 | 1509 ft | 114 kts | 55° |
| 2026-05-03 22:19 | 28.23046 | -81.48787 | 1497 ft | 109 kts | 55° |
| 2026-05-03 22:19 | 28.23443 | -81.48086 | 1495 ft | 105 kts | 56° |
| 2026-05-03 22:19 | 28.23831 | -81.47394 | 1499 ft | 103 kts | 55° |
| 2026-05-03 22:19 | 28.24246 | -81.46714 | 1454 ft | 108 kts | 48° |
| 2026-05-03 22:20 | 28.24777 | -81.46114 | 1374 ft | 107 kts | 42° |
| 2026-05-03 22:20 | 28.25352 | -81.45571 | 1231 ft | 108 kts | 35° |
| 2026-05-03 22:20 | 28.26004 | -81.45176 | 1086 ft | 104 kts | 17° |
| 2026-05-03 22:20 | 28.26687 | -81.45056 | 1024 ft | 95 kts | 7° |
| 2026-05-03 22:21 | 28.27369 | -81.45019 | 876 ft | 97 kts | 5° |
| 2026-05-03 22:21 | 28.28037 | -81.45058 | 872 ft | 95 kts | 359° |
| 2026-05-03 22:21 | 28.28682 | -81.45206 | 760 ft | 101 kts | 343° |
| 2026-05-03 22:21 | 28.29272 | -81.45548 | 833 ft | 90 kts | 337° |
| 2026-05-03 22:22 | 28.29798 | -81.45945 | 728 ft | 93 kts | 336° |
| 2026-05-03 22:22 | 28.30357 | -81.45987 | 621 ft | 78 kts | 33° |
| 2026-05-03 22:22 | 28.30633 | -81.45536 | 589 ft | 75 kts | 76° |
| 2026-05-03 22:22 | 28.30554 | -81.44983 | 428 ft | 81 kts | 125° |
| 2026-05-03 22:23 | 28.30168 | -81.44544 | 261 ft | 80 kts | 131° |
| 2026-05-03 22:23 | 28.29682 | -81.44219 | 113 ft | 79 kts | 140° |
| 2026-05-03 22:23 | 28.29269 | -81.43918 | 83 ft | 58 kts | 150° |
| 2026-05-03 22:23 | 28.29111 | -81.43813 | 87 ft | 13 kts | 146° |
| 2026-05-03 22:24 | 28.29027 | -81.43746 | 87 ft | 14 kts | 144° |
| 2026-05-03 22:24 | 28.28951 | -81.43694 | 87 ft | 12 kts | 155° |
| 2026-05-03 22:24 | 28.28864 | -81.43634 | 87 ft | 17 kts | 147° |
| 2026-05-03 22:24 | 28.28869 | -81.43538 | 88 ft | 7 kts | 67° |
| 2026-05-03 22:25 | 28.28850 | -81.43494 | 85 ft | 19 kts | 148° |
| 2026-05-03 22:25 | 28.28869 | -81.43390 | 83 ft | 17 kts | 352° |
| 2026-05-03 22:25 | 28.28880 | -81.43393 | 83 ft | 0 kts | 349° |